La Paz, Honduras
Current Conditions -  °F | °C
As of 9:00 PM on Wednesday 26 Nov 2014 (Local Time) from MHTG Reporting Station
Drizzle Drizzle  
Wind Chill: 63°   Ceiling: 1600
Heat Index: 63°   Visibility: 4mi
Dew Point: 63°   Wind: 9mph
Humidity: 100%   Direction: 360°N
Pressure: 30.15"   Gusts: NA
Location:  14.2°N, 87.4°W
Report Text: MHTG 270300Z 36008KT 6000 -DZ FEW007 BKN016 17/17 Q1021 A3015 BECMG 8000 VCSH
Loading
Personal Weather Stations






























Interactive Weather Map New forecast layout! Learn more

10-Day Weather Forecast

Advertisements
Track Severe Weather on mobile